DATA ZE ZPRÁV METAR

Zprávy METAR jsou pravidelné letecké meteorologické zprávy o podmínkách na daném letišti, zejména o stavu oblačnosti, viditelnosti a průběhu počasí v poslední hodině. Na letištích s pravidelným provozem jsou vydávány každých 30 minut, jinak zpravidla jednou za hodinu. Ne každé letiště (zejména komerční) poskytuje zprávy po celých 24 hodin denně. Více o zprávách METAR najdete na této stránce.

Zprávy METAR z letišť v blízkém okolí

LKPR - Praha Ruzyně, Česká republika
Směr a vzdálenost od této stanice: ZJZ 98km
Aktualizováno: 19.08.2017 05:30
Skoro jasno
Skoro jasno
 Vítr ze směru ZJZ
Vítr: ZJZ 19 km/h
Teplota: 16°C
Rosný bod: 14°C
Vlhkost: 88%
Tlak vzduchu: 1016 hPa
Oblačnost: Skoro jasno
Dohlednost: 10 km
Detaily oblačnosti: Skoro jasno 1219 m
2017/08/19 03:30 LKPR 190330Z 25010KT 9999 FEW040 16/14 Q1016 NOSIG
LKTB - Brno Tuřany, Česká republika
Směr a vzdálenost od této stanice: JJV 174km
Aktualizováno: 19.08.2017 05:30
Jasno, Jasná obloha
Jasno, Jasná obloha
 Vítr ze směru Z
Vítr: Z 22 km/h
Teplota: 21°C
Rosný bod: 14°C
Vlhkost: 64%
Tlak vzduchu: 1015 hPa
Stav počasí: Jasno
Oblačnost: Jasná obloha
Dohlednost: více než 10 km
2017/08/19 03:30 LKTB 190330Z 26012KT CAVOK 21/14 Q1015 NOSIG
 
LKKV - Karlovy Vary, Česká republika
Směr a vzdálenost od této stanice: Z 187km
Aktualizováno: 19.08.2017 05:00
Polojasno
Polojasno
 Vítr ze směru Z
Vítr: Z 17 km/h
Teplota: 14°C
Rosný bod: 12°C
Vlhkost: 88%
Tlak vzduchu: 1016 hPa
Oblačnost: Polojasno
Dohlednost: 10 km
Detaily oblačnosti: Polojasno 549 m
2017/08/19 03:00 LKKV 190300Z 27009KT 9999 SCT018 14/12 Q1016
LKMT - Ostrava Mošnov, Česká republika
Směr a vzdálenost od této stanice: VJV 208km
Aktualizováno: 19.08.2017 05:30
Jasno, Jasná obloha
Jasno, Jasná obloha
 Vítr ze směru JJZ
Vítr: JJZ 20 km/h
Teplota: 24°C
Rosný bod: 13°C
Vlhkost: 50%
Tlak vzduchu: 1013 hPa
Stav počasí: Jasno
Oblačnost: Jasná obloha
Dohlednost: více než 10 km
2017/08/19 03:30 LKMT 190330Z 20011KT CAVOK 24/13 Q1013 NOSIG
 
LKPD - Pardubice, Česká republika
Směr a vzdálenost od této stanice: JJV 56km
Aktualizováno: 19.08.2017 05:00
Slabý déšť, Zataženo
Slabý déšť, Zataženo
 Vítr ze směru ZJZ
Vítr: ZJZ 13 km/h
Teplota: 18°C
Rosný bod: 17°C
Vlhkost: 94%
Tlak vzduchu: 1014 hPa
Stav počasí: Slabý déšť
Oblačnost: Zataženo
Dohlednost: 10 km
Detaily oblačnosti: Polojasno 762 m
Skoro zataženo 914 m
Zataženo 3048 m
2017/08/19 03:00 LKPD 190300Z 24007KT 9999 -RA SCT025 BKN030 OVC100 18/17 Q1014 RMK BLU
LKKB - Praha Kbely, Česká republika
Směr a vzdálenost od této stanice: ZJZ 81km
Aktualizováno: 19.08.2017 05:00
Skoro zataženo
Skoro zataženo
 Vítr ze směru ZJZ
Vítr: ZJZ 22 km/h
Teplota: 17°C
Rosný bod: 16°C
Vlhkost: 94%
Tlak vzduchu: 1015 hPa
Oblačnost: Skoro zataženo
Dohlednost: 10 km
Detaily oblačnosti: Skoro zataženo 1219 m
Skoro zataženo 1524 m
2017/08/19 03:00 LKKB 190300Z 24012KT 9999 BKN040 BKN050 17/16 Q1015
 
LKCV - Čáslav, Česká republika
Směr a vzdálenost od této stanice: J 63km
Aktualizováno: 19.08.2017 05:00
Skoro zataženo
Skoro zataženo
 Vítr ze směru ZJZ
Vítr: ZJZ 15 km/h
Teplota: 18°C
Rosný bod: 16°C
Vlhkost: 88%
Tlak vzduchu: 1015 hPa
Oblačnost: Skoro zataženo
Dohlednost: 10 km
Detaily oblačnosti: Skoro zataženo 701 m
2017/08/19 03:00 LKCV 190300Z 24008KT 9999 BKN023 18/16 Q1015 NOSIG RMK BLACK
LKNA - Náměšť n. Osl., Česká republika
Směr a vzdálenost od této stanice: JJV 154km
Aktualizováno: 19.08.2017 05:00
Skoro zataženo
Skoro zataženo
 Vítr ze směru Z
Vítr: Z 30 km/h
Teplota: 18°C
Rosný bod: 13°C
Vlhkost: 73%
Tlak vzduchu: 1016 hPa
Oblačnost: Skoro zataženo
Dohlednost: 10 km
Detaily oblačnosti: Skoro jasno 853 m
Skoro zataženo 3048 m
2017/08/19 03:00 LKNA 190300Z 27016KT 9999 FEW028 BKN100 18/13 Q1016 RMK BLU BLU
 
LKLN - Plzeň Líně, Česká republika
Směr a vzdálenost od této stanice: ZJZ 184km
Aktualizováno: 19.08.2017 05:00
Skoro zataženo
Skoro zataženo
 Vítr ze směru JZ
Vítr: JZ 11 km/h
Teplota: 15°C
Rosný bod: 14°C
Vlhkost: 94%
Tlak vzduchu: 1017 hPa
Oblačnost: Skoro zataženo
Dohlednost: 10 km
Detaily oblačnosti: Skoro zataženo 6096 m
2017/08/19 03:00 LKLN 190300Z AUTO 23006KT 200V260 9999 BKN200 15/14 Q1017
EDDC - Dresden Klotzsch, Německo
Směr a vzdálenost od této stanice: ZSZ 142km
Aktualizováno: 19.08.2017 05:20
Skoro zataženo
Skoro zataženo
 Vítr ze směru JZ
Vítr: JZ 7 km/h
Teplota: 16°C
Rosný bod: 14°C
Vlhkost: 88%
Tlak vzduchu: 1015 hPa
Oblačnost: Skoro zataženo
Dohlednost: 10 km
Detaily oblačnosti: Polojasno 823 m
Skoro zataženo 1524 m
2017/08/19 03:20 EDDC 190320Z 23004KT 180V310 9999 SCT027 BKN050 16/14 Q1015